sensor_id;sensor_type;location;lat;lon;timestamp;temperature;humidity
64869;DHT22;51349;52.424;10.840;2024-01-30T00:03:45;0.50;99.90
64869;DHT22;51349;52.424;10.840;2024-01-30T00:08:46;0.60;99.90
64869;DHT22;51349;52.424;10.840;2024-01-30T00:13:49;0.60;99.90
64869;DHT22;51349;52.424;10.840;2024-01-30T00:18:53;0.60;99.90
64869;DHT22;51349;52.424;10.840;2024-01-30T00:23:54;0.50;99.90
64869;DHT22;51349;52.424;10.840;2024-01-30T00:28:54;0.60;99.90
64869;DHT22;51349;52.424;10.840;2024-01-30T00:33:55;0.60;99.90
64869;DHT22;51349;52.424;10.840;2024-01-30T00:38:56;0.60;99.90
64869;DHT22;51349;52.424;10.840;2024-01-30T00:43:57;0.50;99.90
64869;DHT22;51349;52.424;10.840;2024-01-30T00:48:57;0.50;99.90
64869;DHT22;51349;52.424;10.840;2024-01-30T00:53:58;0.50;99.90
64869;DHT22;51349;52.424;10.840;2024-01-30T00:58:58;0.60;99.90
64869;DHT22;51349;52.424;10.840;2024-01-30T01:03:59;0.80;99.90
64869;DHT22;51349;52.424;10.840;2024-01-30T01:09:00;0.60;99.90
64869;DHT22;51349;52.424;10.840;2024-01-30T01:14:01;0.50;99.90
64869;DHT22;51349;52.424;10.840;2024-01-30T01:19:01;0.50;99.90
64869;DHT22;51349;52.424;10.840;2024-01-30T01:24:02;0.40;99.90
64869;DHT22;51349;52.424;10.840;2024-01-30T01:29:02;0.40;99.90
64869;DHT22;51349;52.424;10.840;2024-01-30T01:34:10;0.40;99.90
64869;DHT22;51349;52.424;10.840;2024-01-30T01:39:11;0.40;99.90
64869;DHT22;51349;52.424;10.840;2024-01-30T01:44:12;0.30;99.90
64869;DHT22;51349;52.424;10.840;2024-01-30T01:49:14;0.30;99.90
64869;DHT22;51349;52.424;10.840;2024-01-30T01:54:15;0.20;99.90
64869;DHT22;51349;52.424;10.840;2024-01-30T01:59:17;0.10;99.90
64869;DHT22;51349;52.424;10.840;2024-01-30T02:04:18;0.10;99.90
64869;DHT22;51349;52.424;10.840;2024-01-30T02:09:19;0.00;99.90
64869;DHT22;51349;52.424;10.840;2024-01-30T02:14:19;0.00;99.90
64869;DHT22;51349;52.424;10.840;2024-01-30T02:19:20;0.10;99.90
64869;DHT22;51349;52.424;10.840;2024-01-30T02:24:21;-0.10;99.90
64869;DHT22;51349;52.424;10.840;2024-01-30T02:29:21;-0.10;99.90
64869;DHT22;51349;52.424;10.840;2024-01-30T02:34:23;-0.20;99.90
64869;DHT22;51349;52.424;10.840;2024-01-30T02:39:24;-0.20;99.90
64869;DHT22;51349;52.424;10.840;2024-01-30T02:44:24;-0.20;99.90
64869;DHT22;51349;52.424;10.840;2024-01-30T02:49:25;-0.20;99.90
64869;DHT22;51349;52.424;10.840;2024-01-30T02:54:26;-0.30;99.90
64869;DHT22;51349;52.424;10.840;2024-01-30T02:59:26;-0.20;99.90
64869;DHT22;51349;52.424;10.840;2024-01-30T03:04:27;-0.30;99.90
64869;DHT22;51349;52.424;10.840;2024-01-30T03:09:27;-0.30;99.90
64869;DHT22;51349;52.424;10.840;2024-01-30T03:14:30;-0.30;99.90
64869;DHT22;51349;52.424;10.840;2024-01-30T03:19:32;-0.30;99.90
64869;DHT22;51349;52.424;10.840;2024-01-30T03:24:32;-0.20;99.90
64869;DHT22;51349;52.424;10.840;2024-01-30T03:29:33;-0.10;99.90
64869;DHT22;51349;52.424;10.840;2024-01-30T03:34:34;-0.20;99.90
64869;DHT22;51349;52.424;10.840;2024-01-30T03:39:34;-0.30;99.90
64869;DHT22;51349;52.424;10.840;2024-01-30T03:44:36;-0.30;99.90
64869;DHT22;51349;52.424;10.840;2024-01-30T03:49:37;-0.30;99.90
64869;DHT22;51349;52.424;10.840;2024-01-30T03:54:38;-0.30;99.90
64869;DHT22;51349;52.424;10.840;2024-01-30T03:59:42;-0.30;99.90
64869;DHT22;51349;52.424;10.840;2024-01-30T04:04:42;-0.30;99.90
64869;DHT22;51349;52.424;10.840;2024-01-30T04:09:43;-0.30;99.90
64869;DHT22;51349;52.424;10.840;2024-01-30T04:14:44;-0.30;99.90
64869;DHT22;51349;52.424;10.840;2024-01-30T04:19:44;-0.20;99.90
64869;DHT22;51349;52.424;10.840;2024-01-30T04:24:45;-0.20;99.90
64869;DHT22;51349;52.424;10.840;2024-01-30T04:29:46;-0.20;99.90
64869;DHT22;51349;52.424;10.840;2024-01-30T04:34:46;-0.10;99.90
64869;DHT22;51349;52.424;10.840;2024-01-30T04:39:47;-0.10;99.90
64869;DHT22;51349;52.424;10.840;2024-01-30T04:44:48;-0.10;99.90
64869;DHT22;51349;52.424;10.840;2024-01-30T04:49:48;-0.10;99.90
64869;DHT22;51349;52.424;10.840;2024-01-30T04:54:49;-0.10;99.90
64869;DHT22;51349;52.424;10.840;2024-01-30T04:59:50;-0.20;99.90
64869;DHT22;51349;52.424;10.840;2024-01-30T05:04:50;-0.20;99.90
64869;DHT22;51349;52.424;10.840;2024-01-30T05:09:51;-0.20;99.90
64869;DHT22;51349;52.424;10.840;2024-01-30T05:14:52;-0.20;99.90
64869;DHT22;51349;52.424;10.840;2024-01-30T05:19:52;-0.20;99.90
64869;DHT22;51349;52.424;10.840;2024-01-30T05:24:53;-0.20;99.90
64869;DHT22;51349;52.424;10.840;2024-01-30T05:29:54;-0.20;99.90
64869;DHT22;51349;52.424;10.840;2024-01-30T05:34:54;-0.30;99.90
64869;DHT22;51349;52.424;10.840;2024-01-30T05:39:55;-0.30;99.90
64869;DHT22;51349;52.424;10.840;2024-01-30T05:44:56;-0.30;99.90
64869;DHT22;51349;52.424;10.840;2024-01-30T05:49:57;-0.20;99.90
64869;DHT22;51349;52.424;10.840;2024-01-30T05:54:58;-0.20;99.90
64869;DHT22;51349;52.424;10.840;2024-01-30T05:59:59;-0.20;99.90
64869;DHT22;51349;52.424;10.840;2024-01-30T06:04:59;-0.10;99.90
64869;DHT22;51349;52.424;10.840;2024-01-30T06:10:00;-0.10;99.90
64869;DHT22;51349;52.424;10.840;2024-01-30T06:15:02;-0.20;99.90
64869;DHT22;51349;52.424;10.840;2024-01-30T06:20:03;-0.20;99.90
64869;DHT22;51349;52.424;10.840;2024-01-30T06:25:04;-0.20;99.90
64869;DHT22;51349;52.424;10.840;2024-01-30T06:30:05;-0.20;99.90
64869;DHT22;51349;52.424;10.840;2024-01-30T06:35:09;-0.30;99.90
64869;DHT22;51349;52.424;10.840;2024-01-30T06:40:11;-0.20;99.90
64869;DHT22;51349;52.424;10.840;2024-01-30T06:45:12;-0.30;99.90
64869;DHT22;51349;52.424;10.840;2024-01-30T06:50:13;-0.30;99.90
64869;DHT22;51349;52.424;10.840;2024-01-30T06:55:13;-0.40;99.90
64869;DHT22;51349;52.424;10.840;2024-01-30T07:00:14;-0.30;99.90
64869;DHT22;51349;52.424;10.840;2024-01-30T07:05:16;-0.40;99.90
64869;DHT22;51349;52.424;10.840;2024-01-30T07:10:17;-0.40;99.90
64869;DHT22;51349;52.424;10.840;2024-01-30T07:15:18;-0.40;99.90
64869;DHT22;51349;52.424;10.840;2024-01-30T07:20:20;-0.50;99.90
64869;DHT22;51349;52.424;10.840;2024-01-30T07:25:21;-0.40;99.90
64869;DHT22;51349;52.424;10.840;2024-01-30T07:30:27;-0.10;99.90
64869;DHT22;51349;52.424;10.840;2024-01-30T07:35:27;-0.30;99.90
64869;DHT22;51349;52.424;10.840;2024-01-30T07:40:28;-0.20;99.90
64869;DHT22;51349;52.424;10.840;2024-01-30T07:45:29;-0.20;99.90
64869;DHT22;51349;52.424;10.840;2024-01-30T07:50:33;-0.10;99.90
64869;DHT22;51349;52.424;10.840;2024-01-30T07:55:34;0.00;99.90
64869;DHT22;51349;52.424;10.840;2024-01-30T08:00:34;0.10;99.90
64869;DHT22;51349;52.424;10.840;2024-01-30T08:05:35;0.30;99.90
64869;DHT22;51349;52.424;10.840;2024-01-30T08:10:36;0.60;99.90
64869;DHT22;51349;52.424;10.840;2024-01-30T08:15:37;0.90;99.90
64869;DHT22;51349;52.424;10.840;2024-01-30T08:20:38;1.20;99.90
64869;DHT22;51349;52.424;10.840;2024-01-30T08:25:39;1.40;99.90
64869;DHT22;51349;52.424;10.840;2024-01-30T08:30:39;1.50;99.90
64869;DHT22;51349;52.424;10.840;2024-01-30T08:35:40;1.50;99.90
64869;DHT22;51349;52.424;10.840;2024-01-30T08:40:41;1.60;99.90
64869;DHT22;51349;52.424;10.840;2024-01-30T08:45:42;1.90;99.90
64869;DHT22;51349;52.424;10.840;2024-01-30T08:50:43;2.10;99.90
64869;DHT22;51349;52.424;10.840;2024-01-30T08:55:44;2.50;99.90
64869;DHT22;51349;52.424;10.840;2024-01-30T09:00:44;2.70;99.90
64869;DHT22;51349;52.424;10.840;2024-01-30T09:05:45;3.00;99.90
64869;DHT22;51349;52.424;10.840;2024-01-30T09:10:46;3.50;99.90
64869;DHT22;51349;52.424;10.840;2024-01-30T09:15:47;4.50;99.90
64869;DHT22;51349;52.424;10.840;2024-01-30T09:20:48;5.00;99.90
64869;DHT22;51349;52.424;10.840;2024-01-30T09:25:49;5.30;99.90
64869;DHT22;51349;52.424;10.840;2024-01-30T09:30:49;5.60;99.90
64869;DHT22;51349;52.424;10.840;2024-01-30T09:35:50;5.90;99.90
64869;DHT22;51349;52.424;10.840;2024-01-30T09:40:55;6.20;99.90
64869;DHT22;51349;52.424;10.840;2024-01-30T09:45:59;6.40;99.90
64869;DHT22;51349;52.424;10.840;2024-01-30T09:51:03;6.60;99.90
64869;DHT22;51349;52.424;10.840;2024-01-30T09:56:12;6.70;99.90
64869;DHT22;51349;52.424;10.840;2024-01-30T10:01:15;6.90;99.90
64869;DHT22;51349;52.424;10.840;2024-01-30T10:06:19;7.20;99.90
64869;DHT22;51349;52.424;10.840;2024-01-30T10:11:21;7.30;99.90
64869;DHT22;51349;52.424;10.840;2024-01-30T10:16:22;7.50;99.90
64869;DHT22;51349;52.424;10.840;2024-01-30T10:21:23;8.20;99.90
64869;DHT22;51349;52.424;10.840;2024-01-30T10:26:24;8.70;99.90
64869;DHT22;51349;52.424;10.840;2024-01-30T10:31:24;9.10;99.90
64869;DHT22;51349;52.424;10.840;2024-01-30T10:36:28;10.50;99.90
64869;DHT22;51349;52.424;10.840;2024-01-30T10:41:31;10.40;99.90
64869;DHT22;51349;52.424;10.840;2024-01-30T10:46:36;10.60;99.90
64869;DHT22;51349;52.424;10.840;2024-01-30T10:51:38;10.90;99.90
64869;DHT22;51349;52.424;10.840;2024-01-30T10:56:40;10.50;99.90
64869;DHT22;51349;52.424;10.840;2024-01-30T11:01:41;10.50;99.90
64869;DHT22;51349;52.424;10.840;2024-01-30T11:06:43;10.40;99.90
64869;DHT22;51349;52.424;10.840;2024-01-30T11:11:51;10.50;99.90
64869;DHT22;51349;52.424;10.840;2024-01-30T11:16:53;10.40;99.90
64869;DHT22;51349;52.424;10.840;2024-01-30T11:21:54;10.70;99.90
64869;DHT22;51349;52.424;10.840;2024-01-30T11:26:57;10.70;99.90
64869;DHT22;51349;52.424;10.840;2024-01-30T11:31:59;11.20;99.90
64869;DHT22;51349;52.424;10.840;2024-01-30T11:37:03;11.60;99.90
64869;DHT22;51349;52.424;10.840;2024-01-30T11:42:06;11.40;99.90
64869;DHT22;51349;52.424;10.840;2024-01-30T11:47:10;11.50;99.90
64869;DHT22;51349;52.424;10.840;2024-01-30T11:52:10;11.80;99.90
64869;DHT22;51349;52.424;10.840;2024-01-30T11:57:11;12.10;99.90
64869;DHT22;51349;52.424;10.840;2024-01-30T12:02:16;11.90;99.90
64869;DHT22;51349;52.424;10.840;2024-01-30T12:07:17;11.50;99.90
64869;DHT22;51349;52.424;10.840;2024-01-30T12:12:18;11.50;99.90
64869;DHT22;51349;52.424;10.840;2024-01-30T12:17:33;11.50;99.90
64869;DHT22;51349;52.424;10.840;2024-01-30T12:22:48;11.20;99.90
64869;DHT22;51349;52.424;10.840;2024-01-30T12:27:50;11.20;99.90
64869;DHT22;51349;52.424;10.840;2024-01-30T12:32:51;11.00;99.90
64869;DHT22;51349;52.424;10.840;2024-01-30T12:37:52;10.90;99.90
64869;DHT22;51349;52.424;10.840;2024-01-30T12:42:52;10.80;99.90
64869;DHT22;51349;52.424;10.840;2024-01-30T12:47:53;10.80;99.90
64869;DHT22;51349;52.424;10.840;2024-01-30T12:52:54;10.70;99.90
64869;DHT22;51349;52.424;10.840;2024-01-30T12:57:56;10.90;99.90
64869;DHT22;51349;52.424;10.840;2024-01-30T13:02:56;11.10;99.90
64869;DHT22;51349;52.424;10.840;2024-01-30T13:07:57;11.00;99.90
64869;DHT22;51349;52.424;10.840;2024-01-30T13:12:58;11.00;99.90
64869;DHT22;51349;52.424;10.840;2024-01-30T13:17:59;11.20;99.90
64869;DHT22;51349;52.424;10.840;2024-01-30T13:22:59;11.10;99.90
64869;DHT22;51349;52.424;10.840;2024-01-30T13:28:00;11.10;99.90
64869;DHT22;51349;52.424;10.840;2024-01-30T13:33:01;11.10;99.90
64869;DHT22;51349;52.424;10.840;2024-01-30T13:38:03;11.00;99.90
64869;DHT22;51349;52.424;10.840;2024-01-30T13:43:04;10.90;99.90
64869;DHT22;51349;52.424;10.840;2024-01-30T13:48:05;10.90;99.90
64869;DHT22;51349;52.424;10.840;2024-01-30T13:53:06;10.80;99.90
64869;DHT22;51349;52.424;10.840;2024-01-30T13:58:07;10.80;99.90
64869;DHT22;51349;52.424;10.840;2024-01-30T14:03:08;10.80;99.90
64869;DHT22;51349;52.424;10.840;2024-01-30T14:08:09;10.70;99.90
64869;DHT22;51349;52.424;10.840;2024-01-30T14:13:12;10.70;99.90
64869;DHT22;51349;52.424;10.840;2024-01-30T14:18:13;10.60;99.90
64869;DHT22;51349;52.424;10.840;2024-01-30T14:23:16;10.60;99.90
64869;DHT22;51349;52.424;10.840;2024-01-30T14:28:19;10.60;99.90
64869;DHT22;51349;52.424;10.840;2024-01-30T14:33:20;10.50;99.90
64869;DHT22;51349;52.424;10.840;2024-01-30T14:38:20;10.60;99.90
64869;DHT22;51349;52.424;10.840;2024-01-30T14:43:21;10.60;99.90
64869;DHT22;51349;52.424;10.840;2024-01-30T14:48:22;10.70;99.90
64869;DHT22;51349;52.424;10.840;2024-01-30T14:53:25;10.60;99.90
64869;DHT22;51349;52.424;10.840;2024-01-30T14:58:26;10.60;99.90
64869;DHT22;51349;52.424;10.840;2024-01-30T15:03:27;10.60;99.90
64869;DHT22;51349;52.424;10.840;2024-01-30T15:08:31;10.50;99.90
64869;DHT22;51349;52.424;10.840;2024-01-30T15:13:32;10.50;99.90
64869;DHT22;51349;52.424;10.840;2024-01-30T15:18:32;10.40;99.90
64869;DHT22;51349;52.424;10.840;2024-01-30T15:23:33;10.40;99.90
64869;DHT22;51349;52.424;10.840;2024-01-30T15:28:37;10.30;99.90
64869;DHT22;51349;52.424;10.840;2024-01-30T15:33:38;10.30;99.90
64869;DHT22;51349;52.424;10.840;2024-01-30T15:38:39;10.20;99.90
64869;DHT22;51349;52.424;10.840;2024-01-30T15:43:40;10.10;99.90
64869;DHT22;51349;52.424;10.840;2024-01-30T15:48:41;10.10;99.90
64869;DHT22;51349;52.424;10.840;2024-01-30T15:53:42;10.00;99.90
64869;DHT22;51349;52.424;10.840;2024-01-30T15:58:42;10.00;99.90
64869;DHT22;51349;52.424;10.840;2024-01-30T16:03:49;9.90;99.90
64869;DHT22;51349;52.424;10.840;2024-01-30T16:08:50;10.00;99.90
64869;DHT22;51349;52.424;10.840;2024-01-30T16:13:51;10.00;99.90
64869;DHT22;51349;52.424;10.840;2024-01-30T16:18:52;10.00;99.90
64869;DHT22;51349;52.424;10.840;2024-01-30T16:23:53;9.90;99.90
64869;DHT22;51349;52.424;10.840;2024-01-30T16:28:54;9.90;99.90
64869;DHT22;51349;52.424;10.840;2024-01-30T16:33:55;9.90;99.90
64869;DHT22;51349;52.424;10.840;2024-01-30T16:38:57;9.90;99.90
64869;DHT22;51349;52.424;10.840;2024-01-30T16:43:59;9.90;99.90
64869;DHT22;51349;52.424;10.840;2024-01-30T16:48:59;9.90;99.90
64869;DHT22;51349;52.424;10.840;2024-01-30T16:54:00;9.90;99.90
64869;DHT22;51349;52.424;10.840;2024-01-30T16:59:01;9.90;99.90
64869;DHT22;51349;52.424;10.840;2024-01-30T17:04:02;9.90;99.90
64869;DHT22;51349;52.424;10.840;2024-01-30T17:09:02;9.90;99.90
64869;DHT22;51349;52.424;10.840;2024-01-30T17:14:03;9.90;99.90
64869;DHT22;51349;52.424;10.840;2024-01-30T17:19:04;10.00;99.90
64869;DHT22;51349;52.424;10.840;2024-01-30T17:24:05;9.90;99.90
64869;DHT22;51349;52.424;10.840;2024-01-30T17:29:07;10.00;99.90
64869;DHT22;51349;52.424;10.840;2024-01-30T17:34:08;10.00;99.90
64869;DHT22;51349;52.424;10.840;2024-01-30T17:39:09;10.00;99.90
64869;DHT22;51349;52.424;10.840;2024-01-30T17:44:09;10.00;99.90
64869;DHT22;51349;52.424;10.840;2024-01-30T17:49:12;10.10;99.90
64869;DHT22;51349;52.424;10.840;2024-01-30T17:54:12;10.10;99.90
64869;DHT22;51349;52.424;10.840;2024-01-30T17:59:13;10.00;99.90
64869;DHT22;51349;52.424;10.840;2024-01-30T18:04:14;10.00;99.90
64869;DHT22;51349;52.424;10.840;2024-01-30T18:09:18;10.00;99.90
64869;DHT22;51349;52.424;10.840;2024-01-30T18:14:19;9.90;99.90
64869;DHT22;51349;52.424;10.840;2024-01-30T18:19:20;9.80;99.90
64869;DHT22;51349;52.424;10.840;2024-01-30T18:24:21;9.80;99.90
64869;DHT22;51349;52.424;10.840;2024-01-30T18:29:22;9.70;99.90
64869;DHT22;51349;52.424;10.840;2024-01-30T18:34:23;9.70;99.90
64869;DHT22;51349;52.424;10.840;2024-01-30T18:39:23;9.70;99.90
64869;DHT22;51349;52.424;10.840;2024-01-30T18:44:24;9.70;99.90
64869;DHT22;51349;52.424;10.840;2024-01-30T18:49:25;9.60;99.90
64869;DHT22;51349;52.424;10.840;2024-01-30T18:54:25;9.50;99.90
64869;DHT22;51349;52.424;10.840;2024-01-30T18:59:26;9.60;99.90
64869;DHT22;51349;52.424;10.840;2024-01-30T19:04:27;9.60;99.90
64869;DHT22;51349;52.424;10.840;2024-01-30T19:09:28;9.50;99.90
64869;DHT22;51349;52.424;10.840;2024-01-30T19:14:28;9.50;99.90
64869;DHT22;51349;52.424;10.840;2024-01-30T19:19:31;9.60;99.90
64869;DHT22;51349;52.424;10.840;2024-01-30T19:24:32;9.50;99.90
64869;DHT22;51349;52.424;10.840;2024-01-30T19:29:32;9.50;99.90
64869;DHT22;51349;52.424;10.840;2024-01-30T19:34:33;9.60;99.90
64869;DHT22;51349;52.424;10.840;2024-01-30T19:39:34;9.70;99.90
64869;DHT22;51349;52.424;10.840;2024-01-30T19:44:34;9.70;99.90
64869;DHT22;51349;52.424;10.840;2024-01-30T19:49:39;9.60;99.90
64869;DHT22;51349;52.424;10.840;2024-01-30T19:54:40;9.70;99.90
64869;DHT22;51349;52.424;10.840;2024-01-30T19:59:44;9.80;99.90
64869;DHT22;51349;52.424;10.840;2024-01-30T20:04:45;9.70;99.90
64869;DHT22;51349;52.424;10.840;2024-01-30T20:09:46;9.60;99.90
64869;DHT22;51349;52.424;10.840;2024-01-30T20:14:48;9.40;99.90
64869;DHT22;51349;52.424;10.840;2024-01-30T20:19:49;9.40;99.90
64869;DHT22;51349;52.424;10.840;2024-01-30T20:24:53;9.30;99.90
64869;DHT22;51349;52.424;10.840;2024-01-30T20:29:54;9.20;99.90
64869;DHT22;51349;52.424;10.840;2024-01-30T20:34:55;9.00;99.90
64869;DHT22;51349;52.424;10.840;2024-01-30T20:39:58;8.80;99.90
64869;DHT22;51349;52.424;10.840;2024-01-30T20:45:01;8.70;99.90
64869;DHT22;51349;52.424;10.840;2024-01-30T20:50:03;8.60;99.90
64869;DHT22;51349;52.424;10.840;2024-01-30T20:55:04;8.60;99.90
64869;DHT22;51349;52.424;10.840;2024-01-30T21:00:06;8.60;99.90
64869;DHT22;51349;52.424;10.840;2024-01-30T21:05:07;8.60;99.90
64869;DHT22;51349;52.424;10.840;2024-01-30T21:10:08;8.60;99.90
64869;DHT22;51349;52.424;10.840;2024-01-30T21:15:09;8.80;99.90
64869;DHT22;51349;52.424;10.840;2024-01-30T21:20:11;8.80;99.90
64869;DHT22;51349;52.424;10.840;2024-01-30T21:25:13;8.90;99.90
64869;DHT22;51349;52.424;10.840;2024-01-30T21:30:14;8.80;99.90
64869;DHT22;51349;52.424;10.840;2024-01-30T21:35:15;8.80;99.90
64869;DHT22;51349;52.424;10.840;2024-01-30T21:40:15;8.80;99.90
64869;DHT22;51349;52.424;10.840;2024-01-30T21:45:18;8.70;99.90
64869;DHT22;51349;52.424;10.840;2024-01-30T21:50:20;8.80;99.90
64869;DHT22;51349;52.424;10.840;2024-01-30T21:55:21;8.70;99.90
64869;DHT22;51349;52.424;10.840;2024-01-30T22:00:22;8.60;99.90
64869;DHT22;51349;52.424;10.840;2024-01-30T22:05:22;8.70;99.90
64869;DHT22;51349;52.424;10.840;2024-01-30T22:10:23;8.70;99.90
64869;DHT22;51349;52.424;10.840;2024-01-30T22:15:24;8.70;99.90
64869;DHT22;51349;52.424;10.840;2024-01-30T22:20:24;8.60;99.90
64869;DHT22;51349;52.424;10.840;2024-01-30T22:25:25;8.60;99.90
64869;DHT22;51349;52.424;10.840;2024-01-30T22:30:26;8.70;99.90
64869;DHT22;51349;52.424;10.840;2024-01-30T22:35:27;8.50;99.90
64869;DHT22;51349;52.424;10.840;2024-01-30T22:40:27;8.60;99.90
64869;DHT22;51349;52.424;10.840;2024-01-30T22:45:28;8.60;99.90
64869;DHT22;51349;52.424;10.840;2024-01-30T22:50:29;8.60;99.90
64869;DHT22;51349;52.424;10.840;2024-01-30T22:55:29;8.60;99.90
64869;DHT22;51349;52.424;10.840;2024-01-30T23:00:30;8.60;99.90
64869;DHT22;51349;52.424;10.840;2024-01-30T23:05:32;8.60;99.90
64869;DHT22;51349;52.424;10.840;2024-01-30T23:10:33;8.60;99.90
64869;DHT22;51349;52.424;10.840;2024-01-30T23:15:34;8.50;99.90
64869;DHT22;51349;52.424;10.840;2024-01-30T23:20:35;8.50;99.90
64869;DHT22;51349;52.424;10.840;2024-01-30T23:25:37;8.40;99.90
64869;DHT22;51349;52.424;10.840;2024-01-30T23:30:37;8.30;99.90
64869;DHT22;51349;52.424;10.840;2024-01-30T23:35:38;8.30;99.90
64869;DHT22;51349;52.424;10.840;2024-01-30T23:40:40;8.20;99.90
64869;DHT22;51349;52.424;10.840;2024-01-30T23:45:43;8.00;99.90
64869;DHT22;51349;52.424;10.840;2024-01-30T23:50:43;7.70;99.90
64869;DHT22;51349;52.424;10.840;2024-01-30T23:55:44;7.60;99.90
